Time;durP1;ratioP1;P1;durP2;ratioP2;P2;SDS_P1;SDS_P2;PMS_P1;PMS_P2;Temp;Humidity;BMP_temperature;BMP_pressure;BME280_temperature;BME280_humidity;BME280_pressure;Samples;Min_cycle;Max_cycle;Signal;HPM_P1;HPM_P2
2022/10/14 00:01:38;;;;;;;18.97;14.70;;;9.60;99.90;;;;;;5061495;28;20467;-78
2022/10/14 00:04:05;;;;;;;18.50;12.40;;;9.50;99.90;;;;;;5065420;28;20524;-78
2022/10/14 00:06:34;;;;;;;20.13;15.70;;;9.60;99.90;;;;;;5065264;28;20459;-78
2022/10/14 00:09:04;;;;;;;19.50;13.47;;;9.60;99.90;;;;;;5062700;28;20566;-78
2022/10/14 00:11:35;;;;;;;21.07;14.27;;;9.70;99.90;;;;;;5060767;28;21016;-78
2022/10/14 00:14:04;;;;;;;19.43;15.57;;;9.90;99.90;;;;;;5073043;28;20462;-78
2022/10/14 00:16:33;;;;;;;20.80;16.67;;;9.80;99.90;;;;;;5064364;28;20459;-79
2022/10/14 00:19:00;;;;;;;22.80;15.30;;;9.80;99.90;;;;;;5058763;28;21147;-78
2022/10/14 00:21:28;;;;;;;17.30;15.00;;;9.70;99.90;;;;;;5060169;28;20486;-78
2022/10/14 00:23:56;;;;;;;20.83;14.90;;;9.80;99.90;;;;;;5059008;28;20517;-78
2022/10/14 00:26:25;;;;;;;20.30;16.93;;;9.80;99.90;;;;;;5063363;28;20489;-78
2022/10/14 00:28:53;;;;;;;22.33;15.30;;;9.70;99.90;;;;;;5062864;28;20507;-78
2022/10/14 00:31:21;;;;;;;20.70;16.70;;;9.70;99.90;;;;;;5061542;28;20611;-79
2022/10/14 00:33:48;;;;;;;19.67;15.70;;;9.60;99.90;;;;;;5058057;28;20464;-78
2022/10/14 00:36:17;;;;;;;18.80;13.67;;;9.60;99.90;;;;;;5058545;28;20488;-79
2022/10/14 00:38:45;;;;;;;19.47;14.87;;;9.50;99.90;;;;;;5060125;28;20557;-79
2022/10/14 00:41:13;;;;;;;19.77;15.60;;;9.40;99.90;;;;;;5059988;28;20543;-79
2022/10/14 00:43:58;;;;;;;22.67;14.67;;;9.30;99.90;;;;;;5057954;28;20592;-79
2022/10/14 00:46:26;;;;;;;16.97;12.57;;;9.20;99.90;;;;;;5055175;28;20459;-78
2022/10/14 00:48:54;;;;;;;21.73;14.70;;;9.20;99.90;;;;;;5058771;28;20479;-78
2022/10/14 00:51:21;;;;;;;19.20;13.10;;;9.10;99.90;;;;;;5064869;28;20463;-78
2022/10/14 00:53:48;;;;;;;15.73;12.97;;;9.10;99.90;;;;;;5059687;28;20734;-78
2022/10/14 00:56:19;;;;;;;16.30;12.97;;;9.10;99.90;;;;;;5061783;28;20945;-78
2022/10/14 00:58:46;;;;;;;21.03;16.17;;;9.20;99.90;;;;;;5057291;28;20482;-79
2022/10/14 01:01:14;;;;;;;20.70;15.60;;;9.30;99.90;;;;;;5061338;28;20495;-79
2022/10/14 01:03:41;;;;;;;23.90;17.10;;;9.30;99.90;;;;;;5058693;28;20861;-79
2022/10/14 01:06:20;;;;;;;21.03;15.57;;;9.30;99.90;;;;;;5065199;28;20469;-79
2022/10/14 01:08:52;;;;;;;26.23;15.50;;;9.30;99.90;;;;;;5061543;28;20532;-78
2022/10/14 01:11:26;;;;;;;21.50;17.50;;;9.20;99.90;;;;;;5061341;28;20536;-78
2022/10/14 01:14:01;;;;;;;18.43;14.90;;;9.30;99.90;;;;;;5055933;28;20490;-78
2022/10/14 01:16:38;;;;;;;22.93;15.43;;;9.40;99.90;;;;;;5059165;28;20520;-76
2022/10/14 01:19:28;;;;;;;31.43;16.77;;;9.40;99.90;;;;;;5062441;28;20489;-76
2022/10/14 01:22:02;;;;;;;22.60;15.80;;;9.40;99.90;;;;;;5059698;28;20471;-77
2022/10/14 01:24:44;;;;;;;23.33;16.37;;;9.40;99.90;;;;;;5056737;28;20487;-77
2022/10/14 01:27:39;;;;;;;20.80;15.87;;;9.50;99.90;;;;;;5065654;28;20480;-76
2022/10/14 01:30:11;;;;;;;25.10;16.23;;;9.60;99.90;;;;;;5061778;28;20460;-76
2022/10/14 01:32:47;;;;;;;19.70;17.60;;;9.50;99.90;;;;;;5056256;28;20521;-76
2022/10/14 01:35:23;;;;;;;24.30;16.67;;;9.40;99.90;;;;;;5064188;28;20838;-77
2022/10/14 01:37:55;;;;;;;24.10;16.10;;;9.50;99.90;;;;;;5060246;28;20443;-76
2022/10/14 01:40:35;;;;;;;22.40;18.47;;;9.50;99.90;;;;;;5062231;28;21004;-77
2022/10/14 01:43:04;;;;;;;24.93;17.80;;;9.40;99.90;;;;;;5072790;28;20534;-77
2022/10/14 01:45:35;;;;;;;20.67;15.83;;;9.40;99.90;;;;;;5064704;28;20463;-77
2022/10/14 01:48:03;;;;;;;20.10;16.20;;;9.40;99.90;;;;;;5063882;28;21212;-78
2022/10/14 01:50:31;;;;;;;22.70;16.30;;;9.40;99.90;;;;;;5056244;28;20565;-78
2022/10/14 01:53:02;;;;;;;23.57;17.50;;;9.40;99.90;;;;;;5049405;28;20521;-78
2022/10/14 01:55:34;;;;;;;22.60;16.97;;;9.50;99.90;;;;;;5055252;28;20796;-79
2022/10/14 01:58:01;;;;;;;22.13;16.83;;;9.50;99.90;;;;;;5051952;28;21320;-79
2022/10/14 02:00:28;;;;;;;25.43;19.47;;;9.60;99.90;;;;;;5067022;28;20515;-79
2022/10/14 02:02:57;;;;;;;29.20;18.57;;;9.70;99.90;;;;;;5057491;28;20529;-78
2022/10/14 02:05:31;;;;;;;25.60;17.00;;;9.70;99.90;;;;;;5061115;28;20486;-78
2022/10/14 02:08:04;;;;;;;22.90;17.30;;;9.60;99.90;;;;;;5059644;28;20494;-79
2022/10/14 02:10:42;;;;;;;27.37;15.73;;;9.60;99.90;;;;;;5058046;28;21243;-78
2022/10/14 02:13:22;;;;;;;21.87;17.57;;;9.60;99.90;;;;;;5060366;28;20528;-76
2022/10/14 02:15:57;;;;;;;21.73;15.60;;;9.50;99.90;;;;;;5058931;28;20487;-77
2022/10/14 02:18:32;;;;;;;20.83;16.30;;;9.50;99.90;;;;;;5058600;28;20517;-76
2022/10/14 02:21:05;;;;;;;20.50;15.60;;;9.50;99.90;;;;;;5056993;28;20617;-76
2022/10/14 02:23:37;;;;;;;21.43;18.03;;;9.50;99.90;;;;;;5056380;28;20469;-76
2022/10/14 02:26:05;;;;;;;23.17;16.70;;;9.50;99.90;;;;;;5059253;28;20455;-76
2022/10/14 02:28:34;;;;;;;22.77;17.17;;;9.50;99.90;;;;;;5058105;28;20517;-76
2022/10/14 02:31:05;;;;;;;21.50;16.70;;;9.50;99.90;;;;;;5060115;28;20491;-76
2022/10/14 02:33:40;;;;;;;22.13;17.73;;;9.60;99.90;;;;;;5059541;28;20464;-77
2022/10/14 02:36:09;;;;;;;23.67;16.77;;;9.70;99.90;;;;;;5057363;28;20555;-77
2022/10/14 02:38:36;;;;;;;25.67;18.60;;;9.70;99.90;;;;;;5060813;28;20483;-77
2022/10/14 02:41:07;;;;;;;21.83;18.20;;;9.80;99.90;;;;;;5056940;28;20456;-76
2022/10/14 02:43:34;;;;;;;21.70;17.20;;;9.80;99.90;;;;;;5056901;28;20528;-76
2022/10/14 02:46:03;;;;;;;21.10;14.87;;;9.80;99.90;;;;;;5053263;28;20468;-77
2022/10/14 02:48:30;;;;;;;21.90;16.43;;;9.80;99.90;;;;;;5062519;28;20468;-78
2022/10/14 02:50:58;;;;;;;23.50;17.87;;;9.70;99.90;;;;;;5061499;28;20516;-78
2022/10/14 02:53:25;;;;;;;24.00;18.33;;;9.80;99.90;;;;;;5060815;28;20948;-78
2022/10/14 02:55:52;;;;;;;22.43;18.00;;;9.80;99.90;;;;;;5058547;28;20534;-78
2022/10/14 02:58:19;;;;;;;29.03;19.50;;;9.80;99.90;;;;;;5056684;28;20639;-77
2022/10/14 03:00:48;;;;;;;27.83;19.43;;;9.70;99.90;;;;;;5054968;28;20483;-76
2022/10/14 03:03:15;;;;;;;25.97;18.10;;;9.60;99.90;;;;;;5058876;28;21196;-77
2022/10/14 03:05:43;;;;;;;41.20;20.40;;;9.50;99.90;;;;;;5057905;28;20467;-78
2022/10/14 03:08:12;;;;;;;41.70;22.87;;;9.50;99.90;;;;;;5054215;28;20965;-78
2022/10/14 03:10:39;;;;;;;31.90;23.67;;;9.50;99.90;;;;;;5060287;28;20481;-77
2022/10/14 03:13:05;;;;;;;28.53;21.20;;;9.60;99.90;;;;;;5057126;28;20471;-77
2022/10/14 03:15:32;;;;;;;32.37;22.40;;;9.70;99.90;;;;;;5054412;28;20554;-78
2022/10/14 03:17:59;;;;;;;26.17;22.27;;;9.70;99.90;;;;;;5059547;28;20468;-78
2022/10/14 03:20:26;;;;;;;31.63;21.50;;;9.80;99.90;;;;;;5059068;28;20866;-76
2022/10/14 03:22:53;;;;;;;37.17;22.20;;;9.90;99.90;;;;;;5056133;28;20541;-75
2022/10/14 03:25:22;;;;;;;29.33;22.67;;;9.90;99.90;;;;;;5058125;28;21091;-75
2022/10/14 03:27:49;;;;;;;26.60;20.70;;;9.90;99.90;;;;;;5050524;28;20496;-75
2022/10/14 03:30:16;;;;;;;36.20;21.27;;;9.90;99.90;;;;;;5060035;28;20455;-76
2022/10/14 03:32:43;;;;;;;31.03;23.93;;;9.90;99.90;;;;;;5053475;28;20959;-76
2022/10/14 03:35:10;;;;;;;26.37;22.50;;;9.90;99.90;;;;;;5059956;28;20517;-76
2022/10/14 03:37:37;;;;;;;33.73;23.20;;;9.90;99.90;;;;;;5059921;28;20467;-76
2022/10/14 03:40:05;;;;;;;32.37;25.37;;;9.90;99.90;;;;;;5056834;28;20552;-76
2022/10/14 03:42:33;;;;;;;26.67;20.97;;;10.00;99.90;;;;;;5058093;28;21192;-76
2022/10/14 03:45:00;;;;;;;40.63;23.07;;;10.00;99.90;;;;;;5059406;28;20468;-76
2022/10/14 03:47:27;;;;;;;28.70;21.07;;;10.10;99.90;;;;;;5061625;28;21089;-76
2022/10/14 03:49:54;;;;;;;36.23;26.10;;;10.00;99.90;;;;;;5052676;28;20965;-76
2022/10/14 03:52:21;;;;;;;28.63;19.37;;;10.10;99.90;;;;;;5060569;28;20472;-76
2022/10/14 03:54:48;;;;;;;29.10;22.57;;;10.00;99.90;;;;;;5056018;28;20456;-75
2022/10/14 03:57:14;;;;;;;32.30;23.30;;;10.10;99.90;;;;;;5061659;28;20545;-76
2022/10/14 03:59:43;;;;;;;30.53;22.63;;;10.10;99.90;;;;;;5057363;28;20955;-78
2022/10/14 04:02:10;;;;;;;32.73;24.37;;;10.10;99.90;;;;;;5055700;28;20487;-78
2022/10/14 04:04:37;;;;;;;32.33;23.70;;;10.10;99.90;;;;;;5057538;28;20491;-77
2022/10/14 04:07:04;;;;;;;30.80;24.23;;;10.10;99.90;;;;;;5057196;28;20503;-76
2022/10/14 04:09:30;;;;;;;54.47;28.10;;;10.20;99.90;;;;;;5057725;28;21427;-76
2022/10/14 04:11:57;;;;;;;38.90;24.27;;;10.20;99.90;;;;;;5059681;28;20464;-76
2022/10/14 04:14:25;;;;;;;32.90;24.60;;;10.30;99.90;;;;;;5054175;28;20472;-76
2022/10/14 04:16:53;;;;;;;29.80;24.43;;;10.20;99.90;;;;;;5062923;28;20464;-77
2022/10/14 04:19:20;;;;;;;34.13;24.13;;;10.30;99.90;;;;;;5060325;28;20552;-78
2022/10/14 04:21:47;;;;;;;34.53;24.10;;;10.30;99.90;;;;;;5063111;28;20489;-78
2022/10/14 04:24:15;;;;;;;28.27;23.80;;;10.30;99.90;;;;;;5060029;28;20456;-78
2022/10/14 04:26:42;;;;;;;38.00;24.17;;;10.30;99.90;;;;;;5060513;28;21125;-78
2022/10/14 04:29:09;;;;;;;36.20;24.10;;;10.30;99.90;;;;;;5059988;28;21129;-78
2022/10/14 04:31:36;;;;;;;26.23;20.20;;;10.30;99.90;;;;;;5055836;28;20463;-78
2022/10/14 04:34:05;;;;;;;31.40;23.50;;;10.40;99.90;;;;;;5059099;28;20814;-78
2022/10/14 04:36:31;;;;;;;30.93;22.60;;;10.30;99.90;;;;;;5059686;28;21092;-78
2022/10/14 04:38:58;;;;;;;37.13;22.23;;;10.30;99.90;;;;;;5062954;28;20517;-78
2022/10/14 04:41:25;;;;;;;29.87;22.43;;;10.30;99.90;;;;;;5064254;28;20464;-78
2022/10/14 04:43:58;;;;;;;31.53;21.93;;;10.40;99.90;;;;;;5049795;28;20501;-79
2022/10/14 04:46:25;;;;;;;22.83;17.90;;;10.40;99.90;;;;;;5057135;28;20466;-77
2022/10/14 04:48:52;;;;;;;30.77;20.30;;;10.50;99.90;;;;;;5059743;28;20919;-78
2022/10/14 04:51:21;;;;;;;25.43;20.10;;;10.40;99.90;;;;;;5060109;28;20552;-79
2022/10/14 04:53:51;;;;;;;26.87;18.37;;;10.50;99.90;;;;;;5056677;28;20871;-80
2022/10/14 04:56:21;;;;;;;34.43;23.00;;;10.50;99.90;;;;;;5064260;28;20467;-80
2022/10/14 04:58:49;;;;;;;29.07;19.87;;;10.50;99.90;;;;;;5060953;28;20491;-78
2022/10/14 05:01:17;;;;;;;30.47;20.53;;;10.60;99.90;;;;;;5061862;28;20823;-77
2022/10/14 05:03:44;;;;;;;29.63;21.10;;;10.60;99.90;;;;;;5061009;28;20814;-77
2022/10/14 05:06:11;;;;;;;28.33;18.40;;;10.70;99.90;;;;;;5067441;28;20495;-77
2022/10/14 05:08:39;;;;;;;28.53;19.77;;;10.70;99.90;;;;;;5058621;28;20552;-77
2022/10/14 05:11:06;;;;;;;31.77;21.43;;;10.60;99.90;;;;;;5061425;28;20560;-78
2022/10/14 05:13:33;;;;;;;30.20;20.73;;;10.60;99.90;;;;;;5056761;28;20484;-77
2022/10/14 05:16:00;;;;;;;30.17;20.87;;;10.60;99.90;;;;;;5059511;28;20599;-77
2022/10/14 05:18:27;;;;;;;29.87;18.07;;;10.50;99.90;;;;;;5072063;28;20456;-77
2022/10/14 05:20:54;;;;;;;24.70;19.87;;;10.60;99.90;;;;;;5066581;28;20537;-78
2022/10/14 05:23:21;;;;;;;31.60;19.93;;;10.60;99.90;;;;;;5058823;28;20548;-78
2022/10/14 05:25:50;;;;;;;30.70;17.77;;;10.60;99.90;;;;;;5058699;28;20517;-78
2022/10/14 05:28:17;;;;;;;23.30;18.77;;;10.60;99.90;;;;;;5055858;28;20485;-78
2022/10/14 05:30:44;;;;;;;22.43;16.23;;;10.60;99.90;;;;;;5054765;28;20472;-78
2022/10/14 05:33:11;;;;;;;25.30;18.83;;;10.60;99.90;;;;;;5054775;28;20709;-78
2022/10/14 05:35:38;;;;;;;21.70;18.03;;;10.60;99.90;;;;;;5059204;28;20549;-78
2022/10/14 05:38:05;;;;;;;23.77;19.20;;;10.70;99.90;;;;;;5059819;28;20489;-78
2022/10/14 05:40:32;;;;;;;20.77;15.73;;;10.70;99.90;;;;;;5061565;28;20491;-77
2022/10/14 05:43:01;;;;;;;20.97;16.27;;;10.80;99.90;;;;;;5057878;28;20565;-77
2022/10/14 05:45:27;;;;;;;22.90;16.53;;;10.80;99.90;;;;;;5052379;28;20468;-79
2022/10/14 05:47:55;;;;;;;24.73;18.27;;;10.80;99.90;;;;;;5056662;28;20524;-79
2022/10/14 05:50:22;;;;;;;20.30;16.57;;;10.80;99.90;;;;;;5059029;28;20463;-79
2022/10/14 05:52:49;;;;;;;22.37;15.90;;;10.80;99.90;;;;;;5059172;28;20928;-80
2022/10/14 05:55:16;;;;;;;18.70;15.13;;;10.90;99.90;;;;;;5061024;28;20467;-79
2022/10/14 05:57:43;;;;;;;24.33;17.50;;;10.90;99.90;;;;;;5058655;28;20464;-79
2022/10/14 06:00:13;;;;;;;18.00;14.83;;;11.10;99.90;;;;;;5062658;28;20480;-79
2022/10/14 06:02:40;;;;;;;17.60;14.70;;;11.00;99.90;;;;;;5065535;28;20451;-79
2022/10/14 06:05:08;;;;;;;19.63;14.30;;;11.00;99.90;;;;;;5059353;28;20456;-79
2022/10/14 06:07:36;;;;;;;20.47;16.73;;;11.00;99.90;;;;;;5055460;28;20513;-79
2022/10/14 06:10:03;;;;;;;20.07;14.10;;;11.10;99.90;;;;;;5054775;28;20453;-78
2022/10/14 06:12:31;;;;;;;18.47;13.20;;;11.20;99.90;;;;;;5062618;28;20870;-78
2022/10/14 06:14:58;;;;;;;19.90;13.17;;;11.20;99.90;;;;;;5062157;28;20464;-77
2022/10/14 06:17:28;;;;;;;19.13;14.23;;;11.30;99.90;;;;;;5061822;28;20467;-77
2022/10/14 06:19:55;;;;;;;21.10;15.30;;;11.40;99.90;;;;;;5062766;28;20983;-78
2022/10/14 06:22:22;;;;;;;22.23;15.40;;;11.40;99.90;;;;;;5057259;28;20457;-78
2022/10/14 06:24:49;;;;;;;22.77;15.07;;;11.60;99.90;;;;;;5064398;28;20849;-77
2022/10/14 06:27:16;;;;;;;23.27;16.13;;;11.70;99.90;;;;;;5059841;28;20491;-78
2022/10/14 06:29:42;;;;;;;28.30;18.70;;;11.70;99.90;;;;;;5052001;28;20492;-78
2022/10/14 06:32:10;;;;;;;35.30;21.47;;;11.70;99.90;;;;;;5057165;28;20496;-78
2022/10/14 06:34:38;;;;;;;34.67;21.27;;;11.70;99.90;;;;;;5060755;28;20541;-77
2022/10/14 06:37:05;;;;;;;28.63;18.90;;;11.80;99.90;;;;;;5053517;28;20579;-78
2022/10/14 06:39:32;;;;;;;18.97;16.10;;;11.90;99.90;;;;;;5062116;28;20461;-78
2022/10/14 06:41:59;;;;;;;23.23;18.43;;;11.90;99.90;;;;;;5056680;28;20591;-78
2022/10/14 06:44:26;;;;;;;27.50;17.90;;;11.80;99.90;;;;;;5055817;28;20546;-78
2022/10/14 06:46:53;;;;;;;21.93;17.47;;;11.80;99.90;;;;;;5053272;28;20965;-77
2022/10/14 06:49:20;;;;;;;28.53;19.20;;;11.90;99.90;;;;;;5063965;28;20483;-78
2022/10/14 06:51:48;;;;;;;32.13;25.37;;;11.90;99.90;;;;;;5050360;28;20555;-78
2022/10/14 06:54:16;;;;;;;27.27;20.73;;;11.80;99.90;;;;;;5049590;28;20521;-78
2022/10/14 06:56:43;;;;;;;28.20;21.00;;;11.80;99.90;;;;;;5050098;28;21055;-78
2022/10/14 06:59:10;;;;;;;22.60;17.77;;;11.90;99.90;;;;;;5060784;28;20944;-78
2022/10/14 07:01:37;;;;;;;21.20;17.60;;;12.00;99.90;;;;;;5058943;28;20526;-78
2022/10/14 07:04:05;;;;;;;19.80;15.80;;;12.10;99.90;;;;;;5061532;28;20467;-78
2022/10/14 07:06:32;;;;;;;22.87;16.50;;;12.10;99.90;;;;;;5055022;28;20552;-78
2022/10/14 07:09:00;;;;;;;19.03;15.70;;;12.10;99.90;;;;;;5053813;28;20489;-78
2022/10/14 07:11:27;;;;;;;17.60;15.60;;;12.00;99.90;;;;;;5059138;28;20545;-77
2022/10/14 07:13:55;;;;;;;18.27;16.30;;;12.10;99.90;;;;;;5049774;28;20780;-77
2022/10/14 07:16:22;;;;;;;20.40;14.97;;;12.20;99.90;;;;;;5061283;28;20516;-77
2022/10/14 07:18:49;;;;;;;17.37;14.50;;;12.20;99.90;;;;;;5057071;28;20555;-77
2022/10/14 07:21:16;;;;;;;17.53;14.73;;;12.30;99.90;;;;;;5057657;28;20578;-78
2022/10/14 07:23:43;;;;;;;17.27;15.53;;;12.40;99.90;;;;;;5058171;28;20469;-78
2022/10/14 07:26:11;;;;;;;17.10;15.20;;;12.30;99.90;;;;;;5056148;28;21068;-78
2022/10/14 07:28:38;;;;;;;15.17;13.57;;;12.40;99.90;;;;;;5048278;28;21163;-78
2022/10/14 07:31:07;;;;;;;16.10;13.70;;;12.60;99.90;;;;;;5064557;28;20479;-78
2022/10/14 07:33:35;;;;;;;18.67;15.50;;;12.60;99.90;;;;;;5065464;28;20526;-78
2022/10/14 07:36:03;;;;;;;16.20;12.57;;;12.60;99.90;;;;;;5054218;28;20546;-78
2022/10/14 07:38:30;;;;;;;13.43;12.03;;;12.70;99.90;;;;;;5059307;28;20493;-78
2022/10/14 07:41:00;;;;;;;14.10;12.13;;;12.80;99.90;;;;;;5054962;28;20521;-78
2022/10/14 07:43:29;;;;;;;26.30;15.30;;;13.00;99.90;;;;;;5063508;28;20484;-78
2022/10/14 07:45:59;;;;;;;17.70;14.83;;;13.10;99.90;;;;;;5057311;28;20539;-77
2022/10/14 07:48:28;;;;;;;15.60;13.00;;;13.00;99.90;;;;;;5057220;28;20481;-78
2022/10/14 07:50:55;;;;;;;13.00;10.50;;;13.30;99.90;;;;;;5060412;28;20438;-78
2022/10/14 07:53:23;;;;;;;13.30;11.87;;;13.50;99.90;;;;;;5069722;28;20494;-78
2022/10/14 07:55:52;;;;;;;16.80;11.77;;;13.70;99.90;;;;;;5066240;28;21987;-78
2022/10/14 07:58:21;;;;;;;16.27;14.47;;;13.90;99.90;;;;;;5060062;28;20552;-77
2022/10/14 08:00:49;;;;;;;14.77;11.23;;;13.90;99.90;;;;;;5059644;28;20486;-78
2022/10/14 08:03:17;;;;;;;12.77;10.30;;;14.10;99.90;;;;;;5063366;28;20495;-77
2022/10/14 08:05:44;;;;;;;10.53;8.93;;;14.30;99.90;;;;;;5067283;28;21085;-78
2022/10/14 08:08:11;;;;;;;10.67;9.43;;;14.50;99.90;;;;;;5047992;28;20528;-78
2022/10/14 08:10:39;;;;;;;9.70;8.70;;;14.70;99.90;;;;;;5046724;28;20491;-78
2022/10/14 08:13:06;;;;;;;8.37;7.63;;;14.90;99.90;;;;;;5045133;28;21622;-78
2022/10/14 08:15:37;;;;;;;10.43;9.33;;;14.90;99.90;;;;;;5045849;28;20456;-78
2022/10/14 08:18:05;;;;;;;9.23;8.37;;;14.90;99.90;;;;;;5062705;28;20486;-78
2022/10/14 08:20:32;;;;;;;9.43;8.53;;;15.00;99.90;;;;;;5062405;28;20512;-79
2022/10/14 08:23:00;;;;;;;8.67;7.77;;;14.70;99.90;;;;;;5056052;28;20454;-78
2022/10/14 08:25:27;;;;;;;9.07;8.17;;;14.70;99.90;;;;;;5057972;28;20473;-79
2022/10/14 08:27:56;;;;;;;8.10;7.40;;;14.70;99.90;;;;;;5060930;28;20502;-78
2022/10/14 08:30:24;;;;;;;7.67;6.87;;;14.80;99.90;;;;;;5062546;28;20493;-79
2022/10/14 08:32:51;;;;;;;10.03;7.93;;;14.80;99.90;;;;;;5065212;28;20440;-79
2022/10/14 08:35:19;;;;;;;8.23;7.20;;;14.80;99.90;;;;;;5057196;28;20441;-79
2022/10/14 08:37:56;;;;;;;8.07;7.30;;;15.00;99.90;;;;;;5051073;28;20484;-78
2022/10/14 08:40:23;;;;;;;7.43;6.77;;;15.30;99.90;;;;;;5065604;28;20472;-79
2022/10/14 08:42:57;;;;;;;7.87;7.17;;;15.30;99.90;;;;;;5061591;28;20985;-79
2022/10/14 08:45:30;;;;;;;6.67;6.00;;;15.20;99.90;;;;;;5050918;28;20494;-79
2022/10/14 08:47:59;;;;;;;9.90;5.50;;;15.40;99.90;;;;;;5059195;28;20638;-79
2022/10/14 08:50:33;;;;;;;5.57;5.00;;;15.50;99.90;;;;;;5063681;28;20552;-79
2022/10/14 08:53:07;;;;;;;5.43;4.90;;;15.50;99.90;;;;;;5065937;28;20482;-79
2022/10/14 08:55:37;;;;;;;5.57;4.27;;;15.40;99.90;;;;;;5061410;28;20547;-79
2022/10/14 08:58:12;;;;;;;6.57;5.97;;;15.30;99.90;;;;;;5056938;28;20467;-79
2022/10/14 09:00:41;;;;;;;8.97;7.73;;;15.10;99.90;;;;;;5060173;28;20441;-78
2022/10/14 09:03:18;;;;;;;8.17;5.80;;;14.70;99.90;;;;;;5053890;28;20459;-78
2022/10/14 09:05:51;;;;;;;8.60;7.80;;;14.60;99.90;;;;;;5066314;28;20464;-78
2022/10/14 09:08:26;;;;;;;11.17;10.07;;;14.70;99.90;;;;;;5063223;28;21079;-78
2022/10/14 09:10:53;;;;;;;9.20;8.30;;;14.70;99.90;;;;;;5059607;28;20456;-78
2022/10/14 09:13:27;;;;;;;9.33;7.70;;;14.50;99.90;;;;;;5061736;28;20487;-79
2022/10/14 09:16:02;;;;;;;10.20;7.60;;;14.50;99.90;;;;;;5057215;28;20525;-79
2022/10/14 09:18:35;;;;;;;8.90;7.50;;;14.70;99.90;;;;;;5068942;28;20499;-78
2022/10/14 09:21:21;;;;;;;6.40;5.03;;;14.80;99.90;;;;;;5063480;28;20511;-78
2022/10/14 09:23:49;;;;;;;7.13;6.37;;;15.00;99.90;;;;;;5059946;28;20526;-78
2022/10/14 09:26:19;;;;;;;6.37;5.00;;;15.40;99.90;;;;;;5061881;28;20953;-78
2022/10/14 09:28:48;;;;;;;4.70;4.30;;;15.50;99.90;;;;;;5058296;28;21029;-79
2022/10/14 09:31:15;;;;;;;5.60;5.07;;;15.70;99.90;;;;;;5059036;28;20505;-79
2022/10/14 09:33:44;;;;;;;5.53;5.00;;;16.00;99.90;;;;;;5071409;28;20776;-79
2022/10/14 09:36:17;;;;;;;4.43;4.13;;;16.20;99.90;;;;;;5060386;28;20498;-79
2022/10/14 09:38:45;;;;;;;3.00;2.57;;;16.30;99.90;;;;;;5058269;28;20466;-78
2022/10/14 09:41:14;;;;;;;1.70;1.60;;;16.30;99.90;;;;;;5058560;28;20609;-78
2022/10/14 09:44:17;;;;;;;2.60;2.40;;;16.10;99.90;;;;;;5056591;28;20569;-78
2022/10/14 09:46:48;;;;;;;3.10;2.90;;;15.80;99.90;;;;;;5050648;28;20799;-78
2022/10/14 09:49:17;;;;;;;3.20;3.00;;;15.70;99.90;;;;;;5059641;28;20478;-78
2022/10/14 09:51:46;;;;;;;2.50;2.20;;;15.50;99.90;;;;;;5060643;28;20471;-78
2022/10/14 09:54:23;;;;;;;3.20;1.53;;;15.30;99.90;;;;;;5060808;28;20458;-79
2022/10/14 09:56:50;;;;;;;3.10;2.70;;;15.40;99.90;;;;;;5062357;28;20560;-78
2022/10/14 09:59:19;;;;;;;2.40;1.80;;;15.50;99.90;;;;;;5060204;28;20463;-78
2022/10/14 10:01:51;;;;;;;2.47;2.20;;;15.60;99.90;;;;;;5060431;28;20571;-78
2022/10/14 10:04:27;;;;;;;2.20;2.00;;;15.50;99.90;;;;;;5058301;28;20548;-78
2022/10/14 10:06:56;;;;;;;2.93;2.20;;;15.50;99.90;;;;;;5059924;28;20829;-78
2022/10/14 10:09:23;;;;;;;2.40;2.30;;;15.50;99.90;;;;;;5042191;28;20471;-78
2022/10/14 10:11:50;;;;;;;1.90;1.57;;;15.40;99.90;;;;;;5056570;28;20971;-78
2022/10/14 10:14:21;;;;;;;2.20;2.00;;;15.20;99.90;;;;;;5051459;28;20555;-78
2022/10/14 10:16:49;;;;;;;1.93;1.33;;;15.20;99.90;;;;;;5057499;28;20933;-78
2022/10/14 10:19:28;;;;;;;2.20;1.80;;;15.30;99.90;;;;;;5055323;28;21281;-79
2022/10/14 10:22:16;;;;;;;2.40;2.20;;;15.50;99.90;;;;;;5024943;28;20497;-78
2022/10/14 10:24:44;;;;;;;2.90;1.90;;;15.30;99.90;;;;;;5028963;28;20475;-78
2022/10/14 10:27:21;;;;;;;3.73;1.83;;;15.20;99.90;;;;;;5017445;28;20463;-78
2022/10/14 10:29:48;;;;;;;1.70;1.60;;;15.00;99.90;;;;;;5037850;28;20469;-78
2022/10/14 10:32:22;;;;;;;2.90;2.03;;;15.10;99.90;;;;;;5032998;28;20612;-78
2022/10/14 10:35:14;;;;;;;2.50;2.10;;;15.10;99.90;;;;;;4999382;28;21424;-79
2022/10/14 10:37:55;;;;;;;1.70;1.60;;;15.30;99.90;;;;;;5036154;28;20499;-79
2022/10/14 10:40:41;;;;;;;2.10;1.90;;;15.40;99.90;;;;;;5041583;28;21006;-79
2022/10/14 10:43:31;;;;;;;2.20;2.00;;;15.70;99.90;;;;;;5020205;28;20588;-79
2022/10/14 10:46:15;;;;;;;1.73;1.63;;;16.10;99.90;;;;;;4986171;28;20561;-79
2022/10/14 10:48:48;;;;;;;2.70;2.40;;;16.20;99.90;;;;;;5032081;28;20529;-78
2022/10/14 10:51:25;;;;;;;1.47;1.37;;;16.30;99.90;;;;;;5010281;28;20462;-79
2022/10/14 10:54:08;;;;;;;2.77;2.43;;;16.60;99.90;;;;;;5023832;28;20466;-80
2022/10/14 10:56:42;;;;;;;2.13;1.93;;;17.10;99.90;;;;;;5064630;28;20539;-78
2022/10/14 10:59:37;;;;;;;1.90;1.67;;;17.10;99.90;;;;;;5062110;28;20483;-77
2022/10/14 11:02:37;;;;;;;1.37;1.27;;;17.20;99.90;;;;;;5063404;28;20517;-78
2022/10/14 11:05:10;;;;;;;1.80;1.30;;;17.10;99.90;;;;;;5061303;28;20972;-78
2022/10/14 11:13:39;;;;;;;1.60;1.50;;;17.10;99.90;;;;;;5062747;28;20932;-78
2022/10/14 11:16:10;;;;;;;2.17;0.87;;;17.00;99.90;;;;;;5056451;28;20503;-78
2022/10/14 11:18:47;;;;;;;1.57;0.87;;;17.20;99.90;;;;;;5064718;28;20955;-76
2022/10/14 11:21:25;;;;;;;0.90;0.90;;;17.40;99.90;;;;;;5062566;28;22055;-77
2022/10/14 11:24:00;;;;;;;1.50;0.70;;;17.40;99.90;;;;;;5058092;28;20549;-77
2022/10/14 11:26:55;;;;;;;1.03;0.50;;;17.40;99.90;;;;;;5065984;28;20455;-77
2022/10/14 11:29:41;;;;;;;2.27;0.70;;;17.30;99.90;;;;;;5060607;28;20564;-77
2022/10/14 11:32:17;;;;;;;0.70;0.60;;;17.50;99.90;;;;;;5051738;28;20464;-77
2022/10/14 11:34:53;;;;;;;2.67;0.87;;;17.50;99.90;;;;;;5073959;28;20519;-77
2022/10/14 11:37:29;;;;;;;4.33;1.00;;;17.70;99.90;;;;;;5064760;28;20490;-77
2022/10/14 11:40:00;;;;;;;0.80;0.50;;;17.60;99.90;;;;;;5067995;28;21206;-76
2022/10/14 11:42:40;;;;;;;0.70;0.60;;;17.40;99.90;;;;;;5065684;28;21030;-77
2022/10/14 11:45:27;;;;;;;1.63;1.53;;;17.50;99.90;;;;;;5055640;28;20540;-77
2022/10/14 11:48:01;;;;;;;0.60;0.60;;;17.60;99.90;;;;;;5066308;28;20524;-75
2022/10/14 11:50:35;;;;;;;1.73;0.97;;;17.50;99.90;;;;;;5062247;28;20520;-76
2022/10/14 11:53:12;;;;;;;0.97;0.90;;;17.80;99.90;;;;;;5061017;28;20460;-76
2022/10/14 11:55:45;;;;;;;1.97;0.70;;;17.80;99.90;;;;;;5063324;28;20474;-77
2022/10/14 11:58:17;;;;;;;0.90;0.70;;;17.70;99.90;;;;;;5063897;28;20524;-77
2022/10/14 12:03:45;;;;;;;0.87;0.87;;;18.20;99.90;;;;;;5062377;28;20571;-77
2022/10/14 12:06:18;;;;;;;1.30;0.90;;;18.70;99.90;;;;;;5065596;28;20800;-77
2022/10/14 12:08:50;;;;;;;1.00;0.80;;;19.00;99.90;;;;;;5065064;28;20533;-76
2022/10/14 12:11:28;;;;;;;2.37;0.70;;;18.80;99.90;;;;;;5059277;28;20463;-77
2022/10/14 12:14:05;;;;;;;0.83;0.80;;;19.20;99.90;;;;;;5067299;28;20446;-77
2022/10/14 12:16:33;;;;;;;2.83;1.50;;;19.20;99.90;;;;;;5066930;28;20959;-76
2022/10/14 12:19:00;;;;;;;0.77;0.73;;;19.10;99.90;;;;;;5064337;28;20935;-77
2022/10/14 12:21:32;;;;;;;1.47;0.90;;;18.90;99.90;;;;;;5062149;28;20532;-76
2022/10/14 12:24:03;;;;;;;1.33;1.00;;;18.50;99.90;;;;;;5059105;28;20887;-77
2022/10/14 12:26:45;;;;;;;0.80;0.60;;;18.50;99.90;;;;;;5059938;28;20499;-77
2022/10/14 12:29:16;;;;;;;3.63;0.80;;;18.30;99.90;;;;;;5062078;28;20564;-77
2022/10/14 12:31:49;;;;;;;1.20;0.80;;;18.20;99.90;;;;;;5063675;28;20931;-77
2022/10/14 12:34:33;;;;;;;1.43;0.83;;;18.30;99.90;;;;;;5064709;28;20535;-77
2022/10/14 12:37:21;;;;;;;1.00;0.90;;;18.30;99.90;;;;;;5049731;28;20471;-76
2022/10/14 12:39:48;;;;;;;0.80;0.70;;;18.40;99.90;;;;;;5062604;28;20482;-77
2022/10/14 12:42:16;;;;;;;1.00;0.90;;;18.40;99.90;;;;;;5065280;28;20584;-77
2022/10/14 12:44:48;;;;;;;1.20;1.10;;;18.70;99.90;;;;;;5059026;28;20527;-77
2022/10/14 12:47:21;;;;;;;2.00;1.47;;;18.20;99.90;;;;;;5063987;28;20463;-77
2022/10/14 12:49:51;;;;;;;2.77;1.70;;;18.20;99.90;;;;;;5060099;28;21143;-77
2022/10/14 12:52:23;;;;;;;3.27;1.40;;;18.00;99.90;;;;;;5065238;28;20467;-77
2022/10/14 12:54:51;;;;;;;1.47;1.37;;;18.00;99.90;;;;;;5064330;28;20487;-77
2022/10/14 12:57:26;;;;;;;1.47;1.37;;;18.10;99.90;;;;;;5059072;28;20851;-77
2022/10/14 12:59:57;;;;;;;6.50;1.10;;;18.30;99.90;;;;;;5060007;28;20440;-77
2022/10/14 13:02:31;;;;;;;1.30;1.03;;;18.30;99.90;;;;;;5052161;28;21019;-77